Wetterdaten: aktuell Donnerstag, 23.10.2014 11:15
Datum Zeit Temperatur Feuchte Luftdruck Regen Wind Richtung Richtung Taupunkt Windchill
23.10.2014 11:15 10,2 C 96 % 1023,1 hPa 0,0 l/m 11,0 km/h (2 Bft) S22.5 190 9,6 C 10,2 C
23.10.2014 10:15 9,3 C 98 % 1023,2 hPa 0,0 l/m 9,0 km/h (2 Bft) S22.5 170 9,0 C 8,0 C
23.10.2014 09:15 8,4 C 98 % 1023,2 hPa 0,0 l/m 7,7 km/h (2 Bft) S-SO22.5 160 8,1 C 7,2 C
23.10.2014 08:15 8,1 C 98 % 1022,2 hPa 0,0 l/m 6,8 km/h (2 Bft) S-SO22.5 150 7,8 C 7,1 C
23.10.2014 07:15 8,1 C 97 % 1022,2 hPa 0,0 l/m 5,6 km/h (1 Bft) SO 145 7,7 C 7,4 C
23.10.2014 06:15 8,0 C 97 % 1022,3 hPa 0,0 l/m 0,0 km/h (0 Bft) S-SW 205 7,6 C 8,0 C
23.10.2014 05:15 7,9 C 96 % 1022,3 hPa 0,0 l/m 10,3 km/h (2 Bft) SW 215 7,3 C 6,1 C
23.10.2014 04:09 7,5 C 96 % 1022,3 hPa 0,0 l/m 4,8 km/h (1 Bft) SW 225 6,9 C 7,0 C
23.10.2014 03:09 7,4 C 96 % 1022,3 hPa 0,0 l/m 4,0 km/h (1 Bft) S-SW 205 6,8 C 7,4 C
23.10.2014 02:09 8,0 C 95 % 1022,3 hPa 0,0 l/m 6,2 km/h (2 Bft) SW22.5 220 7,2 C 7,1 C
23.10.2014 01:09 8,0 C 94 % 1022,3 hPa 0,0 l/m 6,0 km/h (2 Bft) S-SW 210 7,1 C 7,2 C
23.10.2014 00:09 8,1 C 94 % 1022,2 hPa 0,0 l/m 3,0 km/h (1 Bft) W-SW 240 7,2 C 8,1 C
22.10.2014 23:09 8,3 C 93 % 1022,2 hPa 0,0 l/m 8,9 km/h (2 Bft) W-SW22.5 245 7,2 C 6,8 C
22.10.2014 22:09 8,4 C 92 % 1021,2 hPa 0,0 l/m 9,8 km/h (2 Bft) W-SW 255 7,2 C 6,8 C
22.10.2014 21:09 8,6 C 92 % 1021,2 hPa 0,0 l/m 7,8 km/h (2 Bft) W22.5 275 7,4 C 7,4 C
22.10.2014 20:09 8,8 C 91 % 1020,1 hPa 0,0 l/m 10,0 km/h (2 Bft) W-NW45 295 7,4 C 7,2 C
22.10.2014 19:09 8,8 C 90 % 1019,1 hPa 0,0 l/m 6,8 km/h (2 Bft) W 275 7,3 C 7,9 C
22.10.2014 18:09 9,1 C 90 % 1019,1 hPa 0,0 l/m 13,5 km/h (3 Bft) W22.5 275 7,5 C 7,0 C
22.10.2014 17:09 9,2 C 90 % 1018,1 hPa 0,0 l/m 14,3 km/h (3 Bft) W-NW45 290 7,6 C 7,0 C
22.10.2014 16:09 9,4 C 90 % 1018,0 hPa 1,1 l/m 17,6 km/h (3 Bft) W-NW45 285 7,8 C 6,9 C
22.10.2014 15:09 10,2 C 93 % 1016,9 hPa 0,0 l/m 25,3 km/h (4 Bft) W22.5 275 9,1 C 10,2 C
22.10.2014 14:09 9,1 C 93 % 1017,0 hPa 0,4 l/m 15,4 km/h (3 Bft) W45 280 8,0 C 6,8 C
22.10.2014 13:09 8,4 C 96 % 1017,1 hPa 0,4 l/m 25,4 km/h (4 Bft) W-SW22.5 240 7,8 C 4,9 C
22.10.2014 12:09 8,1 C 97 % 1017,1 hPa 0,0 l/m 20,1 km/h (4 Bft) W-SW22.5 255 7,7 C 5,0 C
22.10.2014 12:00 8,1 C 98 % 1016,1 hPa 0,0 l/m 23,2 km/h (4 Bft) W-SW22.5 250 7,8 C 4,7 C
_ Min-Zeit 03:21 16:09 13:39 - 03:30 - - 03:21 12:39
Minimum _ 7,3 C 90 % 1016,0 hPa - 0,0 km/h (0 Bft) - - 6,7 C 3,8 C
_ Max-Zeit 15:12 12:00 08:33 12:51 16:06 - - 11:12 15:12
Maximum _ 10,4 C 98 % 1023,3 hPa 0,4 l/m 40,1 km/h
NW (6 Bft)
- - 9,6 C 10,4 C
Durchschnitt _ 8,5 C 95 % 1020,3 hPa #1,8 l/m 10,8 km/h (2 Bft) W - 7,7 C 7,1 C